• Join FlightAware (Why Join?)
  • Login
  • US Flag 
03:18AM EDT


 

Airport Tracker/Info


-or-


 

Live Flight TrackerFlight Track Log ✈ ORK101 ✈ 23-Sep-2013 ✈ CYVR - CYAZ

Flight Track Log - Related Links

Times and Time Zones

All times are in EDT time to prevent confusion due to time zone crossing. See the ORK101 flight status page for this flight to view local times or setup timezone preferences in your user account.

Time Position Orientation Groundspeed Altitude Reporting Facility
EDT Latitude Longitude Course Direction KTS MPH feet Rate Location/Type
01:58PM 49.1667 -123.1333 180° South 120 138 1,200  Level Vancouver Center
01:59PM 49.1333 -123.1333 180° South 120 138 2,300 1,140 Climbing Vancouver Center
02:00PM 49.1000 -123.1167 162° South 120 138 3,500 1,260 Climbing Vancouver Center
02:01PM 49.0667 -123.1333 198° South 120 138 4,900 1,200 Climbing Vancouver Center
02:02PM 49.0667 -123.1833 270° West 120 138 6,000 1,200 Climbing Vancouver Center
02:03PM 49.0500 -123.2333 243° Southwest 120 138 7,300 1,380 Climbing Vancouver Center
02:04PM 49.0500 -123.2833 270° West 120 138 8,800 1,260 Climbing Vancouver Center
02:05PM 49.0500 -123.3333 270° West 110 127 9,900 600 Climbing Vancouver Center
02:06PM 49.0500 -123.4000 270° West 140 161 10,000  Climbing Vancouver Center
02:07PM 49.0500 -123.4667 270° West 150 173 10,000  Level Vancouver Center
02:08PM 49.0500 -123.5500 270° West 160 184 10,000  Level Vancouver Center
02:09PM 49.0500 -123.6000 270° West 160 184 10,000  Level Vancouver Center
02:10PM 49.0500 -123.6667 270° West 170 196 10,000  Level Vancouver Center
02:11PM 49.0500 -123.7500 270° West 170 196 10,000  Level Vancouver Center
02:12PM 49.0500 -123.8167 270° West 170 196 10,000  Level Vancouver Center
02:13PM 49.0500 -123.8833 270° West 170 196 10,000  Level Vancouver Center
02:14PM 49.0500 -123.9500 270° West 160 184 10,000  Level Vancouver Center
02:15PM 49.0500 -124.0333 270° West 170 196 10,100  Climbing Vancouver Center
02:16PM 49.0500 -124.1000 270° West 170 196 10,000  Descending Vancouver Center
02:17PM 49.0500 -124.1500 270° West 160 184 10,100  Climbing Vancouver Center
02:18PM 49.0500 -124.2333 270° West 170 196 10,000 -60 Descending Vancouver Center
02:19PM 49.0500 -124.3167 270° West 160 184 10,000  Level Vancouver Center
02:20PM 49.0500 -124.3833 270° West 170 196 10,100  Climbing Vancouver Center
02:21PM 49.0333 -124.4333 243° Southwest 160 184 10,000 -120 Descending Vancouver Center
02:22PM 49.0333 -124.5167 270° West 170 196 9,900 -300 Descending Vancouver Center
02:24PM 49.0167 -124.6667 260° West 170 196 9,100 -480 Descending Vancouver Center
02:25PM 49.0167 -124.7167 270° West 170 196 8,600 -600 Descending Vancouver Center
02:27PM 48.9833 -124.8667 251° West 180 207 7,400 -600 Descending Vancouver Center
02:28PM 48.9667 -124.9500 253° West 170 196 6,900 -600 Descending Vancouver Center
02:29PM 48.9667 -125.0000 270° West 170 196 6,200 -600 Descending Vancouver Center
02:30PM 48.9500 -125.0667 249° West 170 196 5,700 -600 Descending Vancouver Center
02:31PM 48.9500 -125.1500 270° West 170 196 5,100 -600 Descending Vancouver Center
02:32PM 48.9333 -125.2167 249° West 170 196 4,500 -660 Descending Vancouver Center
02:33PM 48.9333 -125.3000 270° West 170 196 3,800 -720 Descending Vancouver Center
02:34PM 48.9333 -125.3667 270° West 170 196 3,100 -720 Descending Vancouver Center
02:35PM 48.9167 -125.4500 253° West 170 196 2,400 -720 Descending Vancouver Center
02:36PM 48.9000 -125.5000 243° Southwest 170 196 1,700 -660 Descending Vancouver Center
02:37PM 48.9000 -125.5833 270° West 180 207 1,100 -300 Descending Vancouver Center
02:38PM 48.9333 -125.6333 315° West 170 196 1,100  Level Vancouver Center
02:39PM 48.9667 -125.6833 315° West 160 184 1,100  Level Vancouver Center
02:40PM 49.0000 -125.7000 342° North 160 184 1,100 -180 Level Vancouver Center
02:41PM 49.0333 -125.7333 327° Northwest 150 173 800 -300 Descending Vancouver Center